sensor_id;sensor_type;location;lat;lon;timestamp;P1;durP1;ratioP1;P2;durP2;ratioP2
8825;SDS011;4449;50.872;4.714;2022-12-20T00:01:55;2.05;;;1.90;;
8825;SDS011;4449;50.872;4.714;2022-12-20T00:04:23;2.40;;;2.20;;
8825;SDS011;4449;50.872;4.714;2022-12-20T00:06:50;2.15;;;1.95;;
8825;SDS011;4449;50.872;4.714;2022-12-20T00:09:20;3.25;;;2.10;;
8825;SDS011;4449;50.872;4.714;2022-12-20T00:11:49;2.00;;;1.90;;
8825;SDS011;4449;50.872;4.714;2022-12-20T00:14:17;1.92;;;1.83;;
8825;SDS011;4449;50.872;4.714;2022-12-20T00:16:45;3.45;;;2.30;;
8825;SDS011;4449;50.872;4.714;2022-12-20T00:19:13;1.88;;;1.77;;
8825;SDS011;4449;50.872;4.714;2022-12-20T00:21:41;2.30;;;2.10;;
8825;SDS011;4449;50.872;4.714;2022-12-20T00:24:09;2.33;;;2.13;;
8825;SDS011;4449;50.872;4.714;2022-12-20T00:26:38;2.25;;;2.05;;
8825;SDS011;4449;50.872;4.714;2022-12-20T00:29:06;2.25;;;2.05;;
8825;SDS011;4449;50.872;4.714;2022-12-20T00:31:33;2.30;;;2.10;;
8825;SDS011;4449;50.872;4.714;2022-12-20T00:34:01;2.70;;;2.00;;
8825;SDS011;4449;50.872;4.714;2022-12-20T00:36:30;2.03;;;1.90;;
8825;SDS011;4449;50.872;4.714;2022-12-20T00:38:58;2.87;;;2.60;;
8825;SDS011;4449;50.872;4.714;2022-12-20T00:41:26;4.28;;;2.10;;
8825;SDS011;4449;50.872;4.714;2022-12-20T00:43:56;2.33;;;2.20;;
8825;SDS011;4449;50.872;4.714;2022-12-20T00:46:24;2.30;;;2.20;;
8825;SDS011;4449;50.872;4.714;2022-12-20T00:48:52;2.00;;;1.80;;
8825;SDS011;4449;50.872;4.714;2022-12-20T00:51:20;2.00;;;1.90;;
8825;SDS011;4449;50.872;4.714;2022-12-20T00:53:48;2.15;;;1.92;;
8825;SDS011;4449;50.872;4.714;2022-12-20T00:56:16;1.80;;;1.70;;
8825;SDS011;4449;50.872;4.714;2022-12-20T00:58:44;2.35;;;2.17;;
8825;SDS011;4449;50.872;4.714;2022-12-20T01:01:17;2.50;;;2.30;;
8825;SDS011;4449;50.872;4.714;2022-12-20T01:03:46;2.40;;;1.90;;
8825;SDS011;4449;50.872;4.714;2022-12-20T01:06:14;2.50;;;2.40;;
8825;SDS011;4449;50.872;4.714;2022-12-20T01:08:42;2.85;;;2.20;;
8825;SDS011;4449;50.872;4.714;2022-12-20T01:11:10;2.90;;;2.15;;
8825;SDS011;4449;50.872;4.714;2022-12-20T01:13:39;2.47;;;2.22;;
8825;SDS011;4449;50.872;4.714;2022-12-20T01:16:09;2.03;;;1.92;;
8825;SDS011;4449;50.872;4.714;2022-12-20T01:18:38;2.53;;;2.33;;
8825;SDS011;4449;50.872;4.714;2022-12-20T01:21:07;2.20;;;2.10;;
8825;SDS011;4449;50.872;4.714;2022-12-20T01:23:35;2.25;;;2.08;;
8825;SDS011;4449;50.872;4.714;2022-12-20T01:26:04;4.45;;;2.30;;
8825;SDS011;4449;50.872;4.714;2022-12-20T01:28:33;3.83;;;2.65;;
8825;SDS011;4449;50.872;4.714;2022-12-20T01:31:01;2.47;;;2.38;;
8825;SDS011;4449;50.872;4.714;2022-12-20T01:33:32;2.88;;;2.20;;
8825;SDS011;4449;50.872;4.714;2022-12-20T01:36:01;2.60;;;2.10;;
8825;SDS011;4449;50.872;4.714;2022-12-20T01:38:30;2.70;;;2.33;;
8825;SDS011;4449;50.872;4.714;2022-12-20T01:40:58;2.10;;;1.90;;
8825;SDS011;4449;50.872;4.714;2022-12-20T01:43:42;2.67;;;2.47;;
8825;SDS011;4449;50.872;4.714;2022-12-20T01:46:11;2.15;;;2.05;;
8825;SDS011;4449;50.872;4.714;2022-12-20T01:48:39;3.17;;;2.22;;
8825;SDS011;4449;50.872;4.714;2022-12-20T01:51:08;2.50;;;2.30;;
8825;SDS011;4449;50.872;4.714;2022-12-20T01:53:36;2.45;;;2.30;;
8825;SDS011;4449;50.872;4.714;2022-12-20T01:56:04;2.10;;;2.00;;
8825;SDS011;4449;50.872;4.714;2022-12-20T01:58:33;2.47;;;2.20;;
8825;SDS011;4449;50.872;4.714;2022-12-20T02:01:01;2.22;;;2.13;;
8825;SDS011;4449;50.872;4.714;2022-12-20T02:03:29;3.10;;;2.15;;
8825;SDS011;4449;50.872;4.714;2022-12-20T02:05:57;2.20;;;2.00;;
8825;SDS011;4449;50.872;4.714;2022-12-20T02:08:35;2.10;;;2.00;;
8825;SDS011;4449;50.872;4.714;2022-12-20T02:11:05;2.05;;;1.95;;
8825;SDS011;4449;50.872;4.714;2022-12-20T02:13:36;3.78;;;2.25;;
8825;SDS011;4449;50.872;4.714;2022-12-20T02:16:05;1.90;;;1.80;;
8825;SDS011;4449;50.872;4.714;2022-12-20T02:18:33;1.92;;;1.90;;
8825;SDS011;4449;50.872;4.714;2022-12-20T02:23:59;2.05;;;1.95;;
8825;SDS011;4449;50.872;4.714;2022-12-20T02:29:20;2.20;;;2.10;;
8825;SDS011;4449;50.872;4.714;2022-12-20T02:31:53;2.05;;;1.85;;
8825;SDS011;4449;50.872;4.714;2022-12-20T02:34:22;2.08;;;1.98;;
8825;SDS011;4449;50.872;4.714;2022-12-20T02:36:51;2.50;;;2.10;;
8825;SDS011;4449;50.872;4.714;2022-12-20T02:39:19;2.33;;;2.00;;
8825;SDS011;4449;50.872;4.714;2022-12-20T02:41:48;2.22;;;2.10;;
8825;SDS011;4449;50.872;4.714;2022-12-20T02:44:17;2.22;;;2.00;;
8825;SDS011;4449;50.872;4.714;2022-12-20T02:47:05;2.38;;;2.22;;
8825;SDS011;4449;50.872;4.714;2022-12-20T02:49:34;3.92;;;2.20;;
8825;SDS011;4449;50.872;4.714;2022-12-20T02:52:05;2.47;;;1.95;;
8825;SDS011;4449;50.872;4.714;2022-12-20T02:54:34;2.45;;;2.20;;
8825;SDS011;4449;50.872;4.714;2022-12-20T02:57:04;1.92;;;1.83;;
8825;SDS011;4449;50.872;4.714;2022-12-20T02:59:33;2.50;;;2.05;;
8825;SDS011;4449;50.872;4.714;2022-12-20T03:02:05;2.15;;;2.05;;
8825;SDS011;4449;50.872;4.714;2022-12-20T03:04:34;2.08;;;1.98;;
8825;SDS011;4449;50.872;4.714;2022-12-20T03:07:03;2.40;;;2.20;;
8825;SDS011;4449;50.872;4.714;2022-12-20T03:09:33;2.40;;;2.20;;
8825;SDS011;4449;50.872;4.714;2022-12-20T03:12:01;2.20;;;2.10;;
8825;SDS011;4449;50.872;4.714;2022-12-20T03:14:29;2.33;;;2.03;;
8825;SDS011;4449;50.872;4.714;2022-12-20T03:16:57;2.10;;;2.00;;
8825;SDS011;4449;50.872;4.714;2022-12-20T03:19:26;1.90;;;1.80;;
8825;SDS011;4449;50.872;4.714;2022-12-20T03:21:54;2.15;;;2.05;;
8825;SDS011;4449;50.872;4.714;2022-12-20T03:24:21;1.90;;;1.80;;
8825;SDS011;4449;50.872;4.714;2022-12-20T03:26:49;1.85;;;1.75;;
8825;SDS011;4449;50.872;4.714;2022-12-20T03:29:17;2.43;;;1.87;;
8825;SDS011;4449;50.872;4.714;2022-12-20T03:31:45;2.00;;;1.90;;
8825;SDS011;4449;50.872;4.714;2022-12-20T03:34:12;2.17;;;2.08;;
8825;SDS011;4449;50.872;4.714;2022-12-20T03:36:42;2.03;;;1.93;;
8825;SDS011;4449;50.872;4.714;2022-12-20T03:39:09;2.15;;;1.95;;
8825;SDS011;4449;50.872;4.714;2022-12-20T03:41:37;1.80;;;1.70;;
8825;SDS011;4449;50.872;4.714;2022-12-20T03:44:05;3.17;;;2.13;;
8825;SDS011;4449;50.872;4.714;2022-12-20T03:46:33;2.67;;;2.00;;
8825;SDS011;4449;50.872;4.714;2022-12-20T03:49:00;2.00;;;1.90;;
8825;SDS011;4449;50.872;4.714;2022-12-20T03:51:28;2.30;;;2.10;;
8825;SDS011;4449;50.872;4.714;2022-12-20T03:53:57;2.63;;;1.90;;
8825;SDS011;4449;50.872;4.714;2022-12-20T03:56:25;2.45;;;2.22;;
8825;SDS011;4449;50.872;4.714;2022-12-20T03:58:53;2.35;;;2.15;;
8825;SDS011;4449;50.872;4.714;2022-12-20T04:01:22;2.72;;;2.00;;
8825;SDS011;4449;50.872;4.714;2022-12-20T04:03:50;1.88;;;1.83;;
8825;SDS011;4449;50.872;4.714;2022-12-20T04:06:18;2.10;;;2.00;;
8825;SDS011;4449;50.872;4.714;2022-12-20T04:08:46;2.47;;;2.28;;
8825;SDS011;4449;50.872;4.714;2022-12-20T04:11:15;2.45;;;2.25;;
8825;SDS011;4449;50.872;4.714;2022-12-20T04:13:43;2.30;;;2.10;;
8825;SDS011;4449;50.872;4.714;2022-12-20T04:16:11;1.90;;;1.80;;
8825;SDS011;4449;50.872;4.714;2022-12-20T04:18:39;2.35;;;2.08;;
8825;SDS011;4449;50.872;4.714;2022-12-20T04:21:07;2.50;;;2.17;;
8825;SDS011;4449;50.872;4.714;2022-12-20T04:23:36;2.03;;;1.90;;
8825;SDS011;4449;50.872;4.714;2022-12-20T04:26:04;2.20;;;2.00;;
8825;SDS011;4449;50.872;4.714;2022-12-20T04:28:33;2.28;;;2.08;;
8825;SDS011;4449;50.872;4.714;2022-12-20T04:31:01;2.30;;;2.10;;
8825;SDS011;4449;50.872;4.714;2022-12-20T04:33:29;2.03;;;1.90;;
8825;SDS011;4449;50.872;4.714;2022-12-20T04:35:57;2.80;;;1.85;;
8825;SDS011;4449;50.872;4.714;2022-12-20T04:38:25;1.83;;;1.73;;
8825;SDS011;4449;50.872;4.714;2022-12-20T04:40:53;1.92;;;1.80;;
8825;SDS011;4449;50.872;4.714;2022-12-20T04:43:21;2.03;;;1.73;;
8825;SDS011;4449;50.872;4.714;2022-12-20T04:45:52;2.40;;;2.20;;
8825;SDS011;4449;50.872;4.714;2022-12-20T04:48:20;2.28;;;2.08;;
8825;SDS011;4449;50.872;4.714;2022-12-20T04:50:49;1.80;;;1.70;;
8825;SDS011;4449;50.872;4.714;2022-12-20T04:53:17;1.85;;;1.70;;
8825;SDS011;4449;50.872;4.714;2022-12-20T04:56:02;2.83;;;1.70;;
8825;SDS011;4449;50.872;4.714;2022-12-20T04:58:30;1.83;;;1.60;;
8825;SDS011;4449;50.872;4.714;2022-12-20T05:00:59;3.00;;;1.73;;
8825;SDS011;4449;50.872;4.714;2022-12-20T05:03:27;2.38;;;1.60;;
8825;SDS011;4449;50.872;4.714;2022-12-20T05:05:54;3.67;;;1.58;;
8825;SDS011;4449;50.872;4.714;2022-12-20T05:08:22;2.03;;;1.63;;
8825;SDS011;4449;50.872;4.714;2022-12-20T05:10:50;2.45;;;1.70;;
8825;SDS011;4449;50.872;4.714;2022-12-20T05:13:18;2.75;;;1.60;;
8825;SDS011;4449;50.872;4.714;2022-12-20T05:15:49;2.25;;;2.15;;
8825;SDS011;4449;50.872;4.714;2022-12-20T05:18:18;1.67;;;1.58;;
8825;SDS011;4449;50.872;4.714;2022-12-20T05:20:46;1.88;;;1.77;;
8825;SDS011;4449;50.872;4.714;2022-12-20T05:23:34;1.70;;;1.60;;
8825;SDS011;4449;50.872;4.714;2022-12-20T05:26:19;1.70;;;1.70;;
8825;SDS011;4449;50.872;4.714;2022-12-20T05:28:49;1.50;;;1.40;;
8825;SDS011;4449;50.872;4.714;2022-12-20T05:31:17;3.30;;;1.70;;
8825;SDS011;4449;50.872;4.714;2022-12-20T05:33:47;2.05;;;1.95;;
8825;SDS011;4449;50.872;4.714;2022-12-20T05:36:14;2.08;;;1.75;;
8825;SDS011;4449;50.872;4.714;2022-12-20T05:38:42;1.85;;;1.75;;
8825;SDS011;4449;50.872;4.714;2022-12-20T05:41:10;1.90;;;1.80;;
8825;SDS011;4449;50.872;4.714;2022-12-20T05:43:38;1.63;;;1.55;;
8825;SDS011;4449;50.872;4.714;2022-12-20T05:46:05;2.50;;;1.80;;
8825;SDS011;4449;50.872;4.714;2022-12-20T05:48:33;2.80;;;1.40;;
8825;SDS011;4449;50.872;4.714;2022-12-20T05:51:03;2.10;;;1.90;;
8825;SDS011;4449;50.872;4.714;2022-12-20T05:53:30;1.65;;;1.55;;
8825;SDS011;4449;50.872;4.714;2022-12-20T05:55:59;2.03;;;1.42;;
8825;SDS011;4449;50.872;4.714;2022-12-20T05:58:27;1.70;;;1.60;;
8825;SDS011;4449;50.872;4.714;2022-12-20T06:00:55;1.50;;;1.40;;
8825;SDS011;4449;50.872;4.714;2022-12-20T06:03:22;2.47;;;1.60;;
8825;SDS011;4449;50.872;4.714;2022-12-20T06:05:50;1.60;;;1.50;;
8825;SDS011;4449;50.872;4.714;2022-12-20T06:08:20;1.58;;;1.58;;
8825;SDS011;4449;50.872;4.714;2022-12-20T06:10:48;1.70;;;1.60;;
8825;SDS011;4449;50.872;4.714;2022-12-20T06:13:16;2.38;;;1.48;;
8825;SDS011;4449;50.872;4.714;2022-12-20T06:15:44;1.75;;;1.65;;
8825;SDS011;4449;50.872;4.714;2022-12-20T06:18:12;2.47;;;2.20;;
8825;SDS011;4449;50.872;4.714;2022-12-20T06:20:40;1.60;;;1.50;;
8825;SDS011;4449;50.872;4.714;2022-12-20T06:23:08;2.03;;;1.85;;
8825;SDS011;4449;50.872;4.714;2022-12-20T06:25:37;2.90;;;2.10;;
8825;SDS011;4449;50.872;4.714;2022-12-20T06:28:05;1.60;;;1.50;;
8825;SDS011;4449;50.872;4.714;2022-12-20T06:30:33;1.58;;;1.48;;
8825;SDS011;4449;50.872;4.714;2022-12-20T06:33:01;2.13;;;1.30;;
8825;SDS011;4449;50.872;4.714;2022-12-20T06:35:29;1.50;;;1.40;;
8825;SDS011;4449;50.872;4.714;2022-12-20T06:37:56;1.60;;;1.40;;
8825;SDS011;4449;50.872;4.714;2022-12-20T06:40:24;1.30;;;1.30;;
8825;SDS011;4449;50.872;4.714;2022-12-20T06:42:53;1.30;;;1.30;;
8825;SDS011;4449;50.872;4.714;2022-12-20T06:45:21;1.40;;;1.30;;
8825;SDS011;4449;50.872;4.714;2022-12-20T06:47:49;2.07;;;1.43;;
8825;SDS011;4449;50.872;4.714;2022-12-20T06:50:16;1.48;;;1.38;;
8825;SDS011;4449;50.872;4.714;2022-12-20T06:52:44;1.70;;;1.40;;
8825;SDS011;4449;50.872;4.714;2022-12-20T06:55:12;2.30;;;1.40;;
8825;SDS011;4449;50.872;4.714;2022-12-20T06:57:40;1.70;;;1.30;;
8825;SDS011;4449;50.872;4.714;2022-12-20T07:00:10;1.48;;;1.38;;
8825;SDS011;4449;50.872;4.714;2022-12-20T07:02:38;1.70;;;1.60;;
8825;SDS011;4449;50.872;4.714;2022-12-20T07:05:06;1.83;;;1.40;;
8825;SDS011;4449;50.872;4.714;2022-12-20T07:07:33;1.58;;;1.48;;
8825;SDS011;4449;50.872;4.714;2022-12-20T07:10:01;1.50;;;1.40;;
8825;SDS011;4449;50.872;4.714;2022-12-20T07:12:29;1.67;;;1.58;;
8825;SDS011;4449;50.872;4.714;2022-12-20T07:14:57;1.45;;;1.38;;
8825;SDS011;4449;50.872;4.714;2022-12-20T07:17:27;1.52;;;1.42;;
8825;SDS011;4449;50.872;4.714;2022-12-20T07:19:55;1.60;;;1.50;;
8825;SDS011;4449;50.872;4.714;2022-12-20T07:22:22;1.90;;;1.80;;
8825;SDS011;4449;50.872;4.714;2022-12-20T07:24:50;2.05;;;1.27;;
8825;SDS011;4449;50.872;4.714;2022-12-20T07:27:18;1.60;;;1.50;;
8825;SDS011;4449;50.872;4.714;2022-12-20T07:29:46;1.70;;;1.60;;
8825;SDS011;4449;50.872;4.714;2022-12-20T07:32:14;1.67;;;1.50;;
8825;SDS011;4449;50.872;4.714;2022-12-20T07:34:43;2.08;;;1.55;;
8825;SDS011;4449;50.872;4.714;2022-12-20T07:37:11;1.50;;;1.40;;
8825;SDS011;4449;50.872;4.714;2022-12-20T07:39:38;1.65;;;1.55;;
8825;SDS011;4449;50.872;4.714;2022-12-20T07:42:07;1.60;;;1.50;;
8825;SDS011;4449;50.872;4.714;2022-12-20T07:44:34;2.10;;;1.50;;
8825;SDS011;4449;50.872;4.714;2022-12-20T07:47:02;2.28;;;1.63;;
8825;SDS011;4449;50.872;4.714;2022-12-20T07:49:30;1.55;;;1.50;;
8825;SDS011;4449;50.872;4.714;2022-12-20T07:52:00;1.50;;;1.40;;
8825;SDS011;4449;50.872;4.714;2022-12-20T07:54:29;2.22;;;1.50;;
8825;SDS011;4449;50.872;4.714;2022-12-20T07:56:58;1.80;;;1.70;;
8825;SDS011;4449;50.872;4.714;2022-12-20T07:59:27;3.03;;;1.80;;
8825;SDS011;4449;50.872;4.714;2022-12-20T08:01:55;1.73;;;1.67;;
8825;SDS011;4449;50.872;4.714;2022-12-20T08:04:24;1.73;;;1.63;;
8825;SDS011;4449;50.872;4.714;2022-12-20T08:06:52;2.45;;;1.80;;
8825;SDS011;4449;50.872;4.714;2022-12-20T08:09:23;4.50;;;1.85;;
8825;SDS011;4449;50.872;4.714;2022-12-20T08:11:52;2.67;;;1.90;;
8825;SDS011;4449;50.872;4.714;2022-12-20T08:14:20;2.95;;;1.50;;
8825;SDS011;4449;50.872;4.714;2022-12-20T08:16:48;2.20;;;2.10;;
8825;SDS011;4449;50.872;4.714;2022-12-20T08:19:16;3.47;;;1.80;;
8825;SDS011;4449;50.872;4.714;2022-12-20T08:21:44;3.13;;;2.13;;
8825;SDS011;4449;50.872;4.714;2022-12-20T08:24:12;2.00;;;1.77;;
8825;SDS011;4449;50.872;4.714;2022-12-20T08:26:41;1.88;;;1.77;;
8825;SDS011;4449;50.872;4.714;2022-12-20T08:29:09;1.60;;;1.60;;
8825;SDS011;4449;50.872;4.714;2022-12-20T08:31:37;2.10;;;1.90;;
8825;SDS011;4449;50.872;4.714;2022-12-20T08:34:05;2.22;;;1.60;;
8825;SDS011;4449;50.872;4.714;2022-12-20T08:36:32;4.90;;;1.55;;
8825;SDS011;4449;50.872;4.714;2022-12-20T08:39:01;2.00;;;1.90;;
8825;SDS011;4449;50.872;4.714;2022-12-20T08:41:29;2.60;;;1.70;;
8825;SDS011;4449;50.872;4.714;2022-12-20T08:43:58;1.90;;;1.80;;
8825;SDS011;4449;50.872;4.714;2022-12-20T08:46:25;2.05;;;1.95;;
8825;SDS011;4449;50.872;4.714;2022-12-20T08:48:53;2.60;;;2.03;;
8825;SDS011;4449;50.872;4.714;2022-12-20T08:51:21;1.90;;;1.80;;
8825;SDS011;4449;50.872;4.714;2022-12-20T08:53:49;1.70;;;1.60;;
8825;SDS011;4449;50.872;4.714;2022-12-20T08:56:16;2.20;;;1.85;;
8825;SDS011;4449;50.872;4.714;2022-12-20T08:58:44;3.47;;;2.20;;
8825;SDS011;4449;50.872;4.714;2022-12-20T09:01:14;2.85;;;1.70;;
8825;SDS011;4449;50.872;4.714;2022-12-20T09:03:42;1.65;;;1.60;;
8825;SDS011;4449;50.872;4.714;2022-12-20T09:06:11;1.90;;;1.70;;
8825;SDS011;4449;50.872;4.714;2022-12-20T09:08:38;3.70;;;1.92;;
8825;SDS011;4449;50.872;4.714;2022-12-20T09:11:07;2.25;;;1.65;;
8825;SDS011;4449;50.872;4.714;2022-12-20T09:13:36;2.33;;;1.77;;
8825;SDS011;4449;50.872;4.714;2022-12-20T09:16:04;1.90;;;1.60;;
8825;SDS011;4449;50.872;4.714;2022-12-20T09:18:34;2.05;;;1.50;;
8825;SDS011;4449;50.872;4.714;2022-12-20T09:21:02;1.70;;;1.60;;
8825;SDS011;4449;50.872;4.714;2022-12-20T09:23:31;2.30;;;1.60;;
8825;SDS011;4449;50.872;4.714;2022-12-20T09:26:00;2.58;;;1.85;;
8825;SDS011;4449;50.872;4.714;2022-12-20T09:28:28;1.80;;;1.70;;
8825;SDS011;4449;50.872;4.714;2022-12-20T09:30:56;1.77;;;1.67;;
8825;SDS011;4449;50.872;4.714;2022-12-20T09:33:24;2.30;;;1.80;;
8825;SDS011;4449;50.872;4.714;2022-12-20T09:35:54;1.85;;;1.60;;
8825;SDS011;4449;50.872;4.714;2022-12-20T09:38:22;2.30;;;2.10;;
8825;SDS011;4449;50.872;4.714;2022-12-20T09:40:50;2.85;;;1.80;;
8825;SDS011;4449;50.872;4.714;2022-12-20T10:41:48;3.53;;;1.83;;
8825;SDS011;4449;50.872;4.714;2022-12-20T10:44:17;2.22;;;2.13;;
8825;SDS011;4449;50.872;4.714;2022-12-20T10:46:46;4.45;;;2.15;;
8825;SDS011;4449;50.872;4.714;2022-12-20T10:49:28;2.20;;;2.10;;
8825;SDS011;4449;50.872;4.714;2022-12-20T10:51:57;2.35;;;2.10;;
8825;SDS011;4449;50.872;4.714;2022-12-20T10:54:27;3.30;;;2.40;;
8825;SDS011;4449;50.872;4.714;2022-12-20T10:56:57;2.17;;;1.98;;
8825;SDS011;4449;50.872;4.714;2022-12-20T10:59:28;2.00;;;1.90;;
8825;SDS011;4449;50.872;4.714;2022-12-20T11:01:56;2.55;;;2.10;;
8825;SDS011;4449;50.872;4.714;2022-12-20T11:04:26;2.35;;;1.98;;
8825;SDS011;4449;50.872;4.714;2022-12-20T11:06:54;2.83;;;2.33;;
8825;SDS011;4449;50.872;4.714;2022-12-20T11:09:23;2.10;;;2.00;;
8825;SDS011;4449;50.872;4.714;2022-12-20T11:12:00;3.38;;;2.08;;
8825;SDS011;4449;50.872;4.714;2022-12-20T11:14:28;3.60;;;2.17;;
8825;SDS011;4449;50.872;4.714;2022-12-20T11:16:57;3.28;;;1.90;;
8825;SDS011;4449;50.872;4.714;2022-12-20T11:19:30;5.25;;;2.30;;
8825;SDS011;4449;50.872;4.714;2022-12-20T11:22:03;4.32;;;2.50;;
8825;SDS011;4449;50.872;4.714;2022-12-20T11:24:33;3.40;;;2.65;;
8825;SDS011;4449;50.872;4.714;2022-12-20T11:27:12;3.80;;;2.27;;
8825;SDS011;4449;50.872;4.714;2022-12-20T11:29:47;2.95;;;2.38;;
8825;SDS011;4449;50.872;4.714;2022-12-20T11:32:21;2.20;;;2.10;;
8825;SDS011;4449;50.872;4.714;2022-12-20T11:34:53;2.50;;;2.20;;
8825;SDS011;4449;50.872;4.714;2022-12-20T11:37:23;3.67;;;2.40;;
8825;SDS011;4449;50.872;4.714;2022-12-20T11:42:45;2.70;;;2.50;;
8825;SDS011;4449;50.872;4.714;2022-12-20T11:45:14;2.50;;;2.20;;
8825;SDS011;4449;50.872;4.714;2022-12-20T11:47:49;3.60;;;2.50;;
8825;SDS011;4449;50.872;4.714;2022-12-20T11:50:33;2.70;;;2.50;;
8825;SDS011;4449;50.872;4.714;2022-12-20T11:53:04;2.90;;;2.70;;
8825;SDS011;4449;50.872;4.714;2022-12-20T11:55:35;2.60;;;2.15;;
8825;SDS011;4449;50.872;4.714;2022-12-20T11:58:09;3.53;;;2.53;;
8825;SDS011;4449;50.872;4.714;2022-12-20T12:00:38;2.78;;;2.42;;
8825;SDS011;4449;50.872;4.714;2022-12-20T12:03:09;2.30;;;2.10;;
8825;SDS011;4449;50.872;4.714;2022-12-20T12:05:39;3.53;;;2.47;;
8825;SDS011;4449;50.872;4.714;2022-12-20T12:08:09;2.85;;;2.58;;
8825;SDS011;4449;50.872;4.714;2022-12-20T12:10:39;3.80;;;2.70;;
8825;SDS011;4449;50.872;4.714;2022-12-20T12:13:10;2.65;;;2.45;;
8825;SDS011;4449;50.872;4.714;2022-12-20T12:15:45;3.35;;;2.42;;
8825;SDS011;4449;50.872;4.714;2022-12-20T12:18:16;3.50;;;2.42;;
8825;SDS011;4449;50.872;4.714;2022-12-20T12:20:47;4.45;;;2.70;;
8825;SDS011;4449;50.872;4.714;2022-12-20T12:23:17;3.72;;;2.85;;
8825;SDS011;4449;50.872;4.714;2022-12-20T12:25:46;2.80;;;2.30;;
8825;SDS011;4449;50.872;4.714;2022-12-20T12:28:15;2.70;;;2.47;;
8825;SDS011;4449;50.872;4.714;2022-12-20T12:30:45;2.60;;;2.40;;
8825;SDS011;4449;50.872;4.714;2022-12-20T12:33:15;3.10;;;2.42;;
8825;SDS011;4449;50.872;4.714;2022-12-20T12:35:46;3.05;;;2.53;;
8825;SDS011;4449;50.872;4.714;2022-12-20T12:38:25;4.45;;;2.63;;
8825;SDS011;4449;50.872;4.714;2022-12-20T12:41:05;3.25;;;2.45;;
8825;SDS011;4449;50.872;4.714;2022-12-20T12:43:46;5.22;;;2.80;;
8825;SDS011;4449;50.872;4.714;2022-12-20T12:46:15;3.35;;;2.63;;
8825;SDS011;4449;50.872;4.714;2022-12-20T12:48:44;2.63;;;2.50;;
8825;SDS011;4449;50.872;4.714;2022-12-20T12:51:13;2.85;;;2.58;;
8825;SDS011;4449;50.872;4.714;2022-12-20T12:53:42;3.80;;;2.70;;
8825;SDS011;4449;50.872;4.714;2022-12-20T12:56:30;2.60;;;2.40;;
8825;SDS011;4449;50.872;4.714;2022-12-20T12:59:20;3.53;;;2.60;;
8825;SDS011;4449;50.872;4.714;2022-12-20T13:01:49;3.15;;;2.60;;
8825;SDS011;4449;50.872;4.714;2022-12-20T13:07:24;5.57;;;2.47;;
8825;SDS011;4449;50.872;4.714;2022-12-20T13:09:52;2.42;;;2.33;;
8825;SDS011;4449;50.872;4.714;2022-12-20T13:18:03;2.70;;;2.50;;
8825;SDS011;4449;50.872;4.714;2022-12-20T13:20:43;3.10;;;2.42;;
8825;SDS011;4449;50.872;4.714;2022-12-20T13:23:31;3.10;;;2.28;;
8825;SDS011;4449;50.872;4.714;2022-12-20T13:25:59;3.00;;;2.40;;
8825;SDS011;4449;50.872;4.714;2022-12-20T13:28:42;2.60;;;2.50;;
8825;SDS011;4449;50.872;4.714;2022-12-20T13:31:29;3.00;;;2.70;;
8825;SDS011;4449;50.872;4.714;2022-12-20T13:34:00;3.63;;;2.22;;
8825;SDS011;4449;50.872;4.714;2022-12-20T13:36:30;2.90;;;2.40;;
8825;SDS011;4449;50.872;4.714;2022-12-20T13:38:58;2.75;;;2.47;;
8825;SDS011;4449;50.872;4.714;2022-12-20T13:41:34;3.80;;;2.47;;
8825;SDS011;4449;50.872;4.714;2022-12-20T13:46:46;2.97;;;2.65;;
8825;SDS011;4449;50.872;4.714;2022-12-20T13:49:19;2.42;;;2.20;;
8825;SDS011;4449;50.872;4.714;2022-12-20T13:51:48;3.33;;;2.45;;
8825;SDS011;4449;50.872;4.714;2022-12-20T13:54:33;4.35;;;2.65;;
8825;SDS011;4449;50.872;4.714;2022-12-20T13:57:04;3.28;;;2.70;;
8825;SDS011;4449;50.872;4.714;2022-12-20T13:59:32;4.38;;;2.70;;
8825;SDS011;4449;50.872;4.714;2022-12-20T14:02:02;4.07;;;2.78;;
8825;SDS011;4449;50.872;4.714;2022-12-20T14:04:38;5.60;;;3.67;;
8825;SDS011;4449;50.872;4.714;2022-12-20T14:07:07;2.97;;;2.50;;
8825;SDS011;4449;50.872;4.714;2022-12-20T14:09:37;3.15;;;2.85;;
8825;SDS011;4449;50.872;4.714;2022-12-20T14:12:05;6.38;;;2.83;;
8825;SDS011;4449;50.872;4.714;2022-12-20T14:14:37;4.10;;;2.50;;
8825;SDS011;4449;50.872;4.714;2022-12-20T14:17:14;2.70;;;2.50;;
8825;SDS011;4449;50.872;4.714;2022-12-20T14:19:44;3.35;;;2.60;;
8825;SDS011;4449;50.872;4.714;2022-12-20T14:22:12;2.97;;;2.47;;
8825;SDS011;4449;50.872;4.714;2022-12-20T14:24:40;4.13;;;2.80;;
8825;SDS011;4449;50.872;4.714;2022-12-20T14:27:10;3.85;;;2.50;;
8825;SDS011;4449;50.872;4.714;2022-12-20T14:29:38;4.38;;;2.85;;
8825;SDS011;4449;50.872;4.714;2022-12-20T14:32:16;3.43;;;2.60;;
8825;SDS011;4449;50.872;4.714;2022-12-20T14:34:45;4.20;;;2.67;;
8825;SDS011;4449;50.872;4.714;2022-12-20T14:37:23;4.50;;;2.72;;
8825;SDS011;4449;50.872;4.714;2022-12-20T14:39:53;4.75;;;2.92;;
8825;SDS011;4449;50.872;4.714;2022-12-20T14:42:21;2.78;;;2.58;;
8825;SDS011;4449;50.872;4.714;2022-12-20T14:44:49;3.55;;;2.92;;
8825;SDS011;4449;50.872;4.714;2022-12-20T14:47:19;5.10;;;3.13;;
8825;SDS011;4449;50.872;4.714;2022-12-20T14:49:49;3.10;;;2.80;;
8825;SDS011;4449;50.872;4.714;2022-12-20T14:52:19;3.25;;;2.97;;
8825;SDS011;4449;50.872;4.714;2022-12-20T14:54:49;4.25;;;2.85;;
8825;SDS011;4449;50.872;4.714;2022-12-20T14:57:23;3.92;;;2.88;;
8825;SDS011;4449;50.872;4.714;2022-12-20T14:59:56;5.03;;;3.25;;
8825;SDS011;4449;50.872;4.714;2022-12-20T15:02:36;4.05;;;3.22;;
8825;SDS011;4449;50.872;4.714;2022-12-20T15:05:08;3.95;;;3.40;;
8825;SDS011;4449;50.872;4.714;2022-12-20T15:07:38;4.75;;;2.92;;
8825;SDS011;4449;50.872;4.714;2022-12-20T15:10:07;4.13;;;3.00;;
8825;SDS011;4449;50.872;4.714;2022-12-20T15:12:44;4.30;;;3.20;;
8825;SDS011;4449;50.872;4.714;2022-12-20T15:15:12;5.00;;;3.15;;
8825;SDS011;4449;50.872;4.714;2022-12-20T15:17:40;5.35;;;2.90;;
8825;SDS011;4449;50.872;4.714;2022-12-20T15:22:40;5.28;;;3.17;;
8825;SDS011;4449;50.872;4.714;2022-12-20T15:25:10;4.70;;;3.40;;
8825;SDS011;4449;50.872;4.714;2022-12-20T15:27:41;5.70;;;3.50;;
8825;SDS011;4449;50.872;4.714;2022-12-20T15:30:10;3.70;;;3.22;;
8825;SDS011;4449;50.872;4.714;2022-12-20T15:32:39;3.65;;;3.20;;
8825;SDS011;4449;50.872;4.714;2022-12-20T15:35:11;3.40;;;3.10;;
8825;SDS011;4449;50.872;4.714;2022-12-20T15:37:38;3.83;;;3.40;;
8825;SDS011;4449;50.872;4.714;2022-12-20T15:40:09;4.60;;;3.40;;
8825;SDS011;4449;50.872;4.714;2022-12-20T15:42:39;3.58;;;3.30;;
8825;SDS011;4449;50.872;4.714;2022-12-20T15:45:11;4.15;;;3.15;;
8825;SDS011;4449;50.872;4.714;2022-12-20T15:47:38;3.40;;;3.20;;
8825;SDS011;4449;50.872;4.714;2022-12-20T15:50:08;4.22;;;3.28;;
8825;SDS011;4449;50.872;4.714;2022-12-20T15:52:36;5.55;;;3.72;;
8825;SDS011;4449;50.872;4.714;2022-12-20T15:55:04;3.60;;;3.33;;
8825;SDS011;4449;50.872;4.714;2022-12-20T15:57:33;5.20;;;3.47;;
8825;SDS011;4449;50.872;4.714;2022-12-20T16:00:02;5.35;;;4.00;;
8825;SDS011;4449;50.872;4.714;2022-12-20T16:02:31;5.55;;;3.65;;
8825;SDS011;4449;50.872;4.714;2022-12-20T16:04:59;5.05;;;3.67;;
8825;SDS011;4449;50.872;4.714;2022-12-20T16:07:27;3.83;;;3.50;;
8825;SDS011;4449;50.872;4.714;2022-12-20T16:09:54;4.47;;;4.07;;
8825;SDS011;4449;50.872;4.714;2022-12-20T16:12:23;4.18;;;3.80;;
8825;SDS011;4449;50.872;4.714;2022-12-20T16:14:53;5.13;;;3.88;;
8825;SDS011;4449;50.872;4.714;2022-12-20T16:17:21;5.30;;;4.18;;
8825;SDS011;4449;50.872;4.714;2022-12-20T16:19:49;4.43;;;3.60;;
8825;SDS011;4449;50.872;4.714;2022-12-20T16:22:18;5.28;;;4.00;;
8825;SDS011;4449;50.872;4.714;2022-12-20T16:24:46;3.65;;;3.42;;
8825;SDS011;4449;50.872;4.714;2022-12-20T16:27:14;5.57;;;4.27;;
8825;SDS011;4449;50.872;4.714;2022-12-20T16:29:42;5.45;;;3.83;;
8825;SDS011;4449;50.872;4.714;2022-12-20T16:32:13;4.72;;;4.07;;
8825;SDS011;4449;50.872;4.714;2022-12-20T16:34:41;4.03;;;3.73;;
8825;SDS011;4449;50.872;4.714;2022-12-20T16:37:09;5.15;;;4.65;;
8825;SDS011;4449;50.872;4.714;2022-12-20T16:39:37;4.53;;;3.80;;
8825;SDS011;4449;50.872;4.714;2022-12-20T16:42:08;4.90;;;4.40;;
8825;SDS011;4449;50.872;4.714;2022-12-20T16:44:36;5.22;;;4.00;;
8825;SDS011;4449;50.872;4.714;2022-12-20T16:47:07;5.40;;;3.90;;
8825;SDS011;4449;50.872;4.714;2022-12-20T16:49:36;4.95;;;4.45;;
8825;SDS011;4449;50.872;4.714;2022-12-20T16:52:04;5.15;;;4.20;;